sensor_id;sensor_type;location;lat;lon;timestamp;P1;durP1;ratioP1;P2;durP2;ratioP2
74660;SDS011;63191;39.566;2.654;2023-05-08T00:01:23;5.10;;;0.90;;
74660;SDS011;63191;39.566;2.654;2023-05-08T00:03:51;6.10;;;0.90;;
74660;SDS011;63191;39.566;2.654;2023-05-08T00:06:17;5.00;;;0.90;;
74660;SDS011;63191;39.566;2.654;2023-05-08T00:08:42;4.70;;;1.20;;
74660;SDS011;63191;39.566;2.654;2023-05-08T00:14:48;6.00;;;1.10;;
74660;SDS011;63191;39.566;2.654;2023-05-08T00:19:48;7.50;;;1.30;;
74660;SDS011;63191;39.566;2.654;2023-05-08T00:22:14;8.30;;;1.40;;
74660;SDS011;63191;39.566;2.654;2023-05-08T00:24:40;4.10;;;1.10;;
74660;SDS011;63191;39.566;2.654;2023-05-08T00:27:06;5.90;;;1.50;;
74660;SDS011;63191;39.566;2.654;2023-05-08T00:29:33;5.60;;;1.20;;
74660;SDS011;63191;39.566;2.654;2023-05-08T00:31:59;5.90;;;1.40;;
74660;SDS011;63191;39.566;2.654;2023-05-08T00:34:25;5.20;;;1.10;;
74660;SDS011;63191;39.566;2.654;2023-05-08T00:36:51;5.00;;;1.00;;
74660;SDS011;63191;39.566;2.654;2023-05-08T00:39:17;4.60;;;1.00;;
74660;SDS011;63191;39.566;2.654;2023-05-08T00:44:28;5.30;;;1.00;;
74660;SDS011;63191;39.566;2.654;2023-05-08T00:47:14;5.60;;;1.10;;
74660;SDS011;63191;39.566;2.654;2023-05-08T00:49:40;4.10;;;1.00;;
74660;SDS011;63191;39.566;2.654;2023-05-08T00:52:06;5.40;;;1.40;;
74660;SDS011;63191;39.566;2.654;2023-05-08T00:54:36;4.30;;;1.10;;
74660;SDS011;63191;39.566;2.654;2023-05-08T00:57:05;4.30;;;1.10;;
74660;SDS011;63191;39.566;2.654;2023-05-08T00:59:32;3.70;;;1.30;;
74660;SDS011;63191;39.566;2.654;2023-05-08T01:04:56;7.60;;;1.50;;
74660;SDS011;63191;39.566;2.654;2023-05-08T01:07:22;5.90;;;1.30;;
74660;SDS011;63191;39.566;2.654;2023-05-08T01:09:48;4.20;;;1.20;;
74660;SDS011;63191;39.566;2.654;2023-05-08T01:12:25;3.90;;;1.00;;
74660;SDS011;63191;39.566;2.654;2023-05-08T01:15:17;7.90;;;1.30;;
74660;SDS011;63191;39.566;2.654;2023-05-08T01:18:22;4.70;;;1.20;;
74660;SDS011;63191;39.566;2.654;2023-05-08T01:24:29;7.60;;;1.60;;
74660;SDS011;63191;39.566;2.654;2023-05-08T01:36:53;4.90;;;1.10;;
74660;SDS011;63191;39.566;2.654;2023-05-08T01:39:43;9.40;;;1.10;;
74660;SDS011;63191;39.566;2.654;2023-05-08T01:44:44;5.20;;;1.00;;
74660;SDS011;63191;39.566;2.654;2023-05-08T01:47:25;4.70;;;1.10;;
74660;SDS011;63191;39.566;2.654;2023-05-08T01:52:57;5.00;;;1.30;;
74660;SDS011;63191;39.566;2.654;2023-05-08T01:55:26;4.60;;;1.20;;
74660;SDS011;63191;39.566;2.654;2023-05-08T01:57:57;4.50;;;1.30;;
74660;SDS011;63191;39.566;2.654;2023-05-08T02:03:19;4.60;;;1.20;;
74660;SDS011;63191;39.566;2.654;2023-05-08T02:05:54;6.50;;;1.50;;
74660;SDS011;63191;39.566;2.654;2023-05-08T02:08:36;4.70;;;1.20;;
74660;SDS011;63191;39.566;2.654;2023-05-08T02:11:23;5.60;;;1.20;;
74660;SDS011;63191;39.566;2.654;2023-05-08T02:13:51;5.60;;;1.30;;
74660;SDS011;63191;39.566;2.654;2023-05-08T02:16:18;3.70;;;1.10;;
74660;SDS011;63191;39.566;2.654;2023-05-08T02:18:55;7.40;;;1.50;;
74660;SDS011;63191;39.566;2.654;2023-05-08T02:21:23;5.50;;;1.30;;
74660;SDS011;63191;39.566;2.654;2023-05-08T02:23:58;6.20;;;1.90;;
74660;SDS011;63191;39.566;2.654;2023-05-08T02:26:31;5.00;;;1.20;;
74660;SDS011;63191;39.566;2.654;2023-05-08T02:29:00;4.60;;;1.10;;
74660;SDS011;63191;39.566;2.654;2023-05-08T02:31:28;4.90;;;1.20;;
74660;SDS011;63191;39.566;2.654;2023-05-08T02:33:56;4.70;;;1.30;;
74660;SDS011;63191;39.566;2.654;2023-05-08T02:36:28;6.50;;;1.70;;
74660;SDS011;63191;39.566;2.654;2023-05-08T02:38:55;6.90;;;1.30;;
74660;SDS011;63191;39.566;2.654;2023-05-08T02:41:25;7.50;;;1.50;;
74660;SDS011;63191;39.566;2.654;2023-05-08T02:43:53;5.90;;;1.60;;
74660;SDS011;63191;39.566;2.654;2023-05-08T02:50:27;6.90;;;1.60;;
74660;SDS011;63191;39.566;2.654;2023-05-08T02:55:21;5.40;;;1.10;;
74660;SDS011;63191;39.566;2.654;2023-05-08T02:58:10;5.60;;;1.50;;
74660;SDS011;63191;39.566;2.654;2023-05-08T03:01:03;7.70;;;2.30;;
74660;SDS011;63191;39.566;2.654;2023-05-08T03:03:38;6.60;;;1.90;;
74660;SDS011;63191;39.566;2.654;2023-05-08T03:06:16;5.10;;;1.50;;
74660;SDS011;63191;39.566;2.654;2023-05-08T03:11:15;5.90;;;2.10;;
74660;SDS011;63191;39.566;2.654;2023-05-08T03:13:50;7.00;;;1.70;;
74660;SDS011;63191;39.566;2.654;2023-05-08T03:16:29;4.80;;;1.60;;
74660;SDS011;63191;39.566;2.654;2023-05-08T03:19:00;6.10;;;1.50;;
74660;SDS011;63191;39.566;2.654;2023-05-08T03:21:32;5.10;;;1.50;;
74660;SDS011;63191;39.566;2.654;2023-05-08T03:24:01;7.30;;;1.60;;
74660;SDS011;63191;39.566;2.654;2023-05-08T03:26:28;7.00;;;1.60;;
74660;SDS011;63191;39.566;2.654;2023-05-08T03:28:55;6.40;;;1.40;;
74660;SDS011;63191;39.566;2.654;2023-05-08T03:31:23;5.30;;;1.30;;
74660;SDS011;63191;39.566;2.654;2023-05-08T03:33:52;4.80;;;1.40;;
74660;SDS011;63191;39.566;2.654;2023-05-08T03:36:25;4.90;;;1.30;;
74660;SDS011;63191;39.566;2.654;2023-05-08T03:38:51;6.60;;;1.30;;
74660;SDS011;63191;39.566;2.654;2023-05-08T03:41:17;5.90;;;1.50;;
74660;SDS011;63191;39.566;2.654;2023-05-08T03:43:45;4.30;;;1.20;;
74660;SDS011;63191;39.566;2.654;2023-05-08T03:46:12;5.30;;;1.40;;
74660;SDS011;63191;39.566;2.654;2023-05-08T03:48:41;4.20;;;1.20;;
74660;SDS011;63191;39.566;2.654;2023-05-08T03:51:17;5.90;;;1.30;;
74660;SDS011;63191;39.566;2.654;2023-05-08T03:53:43;6.80;;;1.50;;
74660;SDS011;63191;39.566;2.654;2023-05-08T03:56:09;6.60;;;1.80;;
74660;SDS011;63191;39.566;2.654;2023-05-08T04:01:57;4.20;;;1.30;;
74660;SDS011;63191;39.566;2.654;2023-05-08T04:04:44;5.00;;;1.30;;
74660;SDS011;63191;39.566;2.654;2023-05-08T04:10:49;6.30;;;1.20;;
74660;SDS011;63191;39.566;2.654;2023-05-08T04:13:48;5.20;;;1.40;;
74660;SDS011;63191;39.566;2.654;2023-05-08T04:16:22;5.10;;;1.40;;
74660;SDS011;63191;39.566;2.654;2023-05-08T04:18:49;4.70;;;1.50;;
74660;SDS011;63191;39.566;2.654;2023-05-08T04:21:23;4.90;;;1.50;;
74660;SDS011;63191;39.566;2.654;2023-05-08T04:24:02;5.80;;;1.80;;
74660;SDS011;63191;39.566;2.654;2023-05-08T04:26:29;5.20;;;1.60;;
74660;SDS011;63191;39.566;2.654;2023-05-08T04:28:56;5.50;;;1.50;;
74660;SDS011;63191;39.566;2.654;2023-05-08T04:31:23;5.50;;;1.60;;
74660;SDS011;63191;39.566;2.654;2023-05-08T04:33:49;5.20;;;1.40;;
74660;SDS011;63191;39.566;2.654;2023-05-08T04:36:15;6.90;;;2.20;;
74660;SDS011;63191;39.566;2.654;2023-05-08T04:38:42;6.00;;;2.00;;
74660;SDS011;63191;39.566;2.654;2023-05-08T04:41:08;6.40;;;2.20;;
74660;SDS011;63191;39.566;2.654;2023-05-08T04:43:34;6.90;;;1.90;;
74660;SDS011;63191;39.566;2.654;2023-05-08T04:46:02;7.60;;;1.70;;
74660;SDS011;63191;39.566;2.654;2023-05-08T04:48:29;6.20;;;1.50;;
74660;SDS011;63191;39.566;2.654;2023-05-08T04:50:57;8.40;;;1.80;;
74660;SDS011;63191;39.566;2.654;2023-05-08T04:53:23;6.00;;;1.80;;
74660;SDS011;63191;39.566;2.654;2023-05-08T04:55:51;8.10;;;1.80;;
74660;SDS011;63191;39.566;2.654;2023-05-08T04:58:17;5.70;;;1.60;;
74660;SDS011;63191;39.566;2.654;2023-05-08T05:00:43;5.50;;;1.60;;
74660;SDS011;63191;39.566;2.654;2023-05-08T05:03:09;5.70;;;1.70;;
74660;SDS011;63191;39.566;2.654;2023-05-08T05:05:35;8.80;;;1.70;;
74660;SDS011;63191;39.566;2.654;2023-05-08T05:08:00;6.90;;;2.20;;
74660;SDS011;63191;39.566;2.654;2023-05-08T05:10:29;7.60;;;1.50;;
74660;SDS011;63191;39.566;2.654;2023-05-08T05:12:54;7.50;;;1.60;;
74660;SDS011;63191;39.566;2.654;2023-05-08T05:15:20;6.10;;;1.50;;
74660;SDS011;63191;39.566;2.654;2023-05-08T05:17:47;5.90;;;1.50;;
74660;SDS011;63191;39.566;2.654;2023-05-08T05:20:13;5.50;;;1.40;;
74660;SDS011;63191;39.566;2.654;2023-05-08T05:22:47;6.60;;;1.60;;
74660;SDS011;63191;39.566;2.654;2023-05-08T05:25:13;4.40;;;1.30;;
74660;SDS011;63191;39.566;2.654;2023-05-08T05:27:40;7.50;;;1.40;;
74660;SDS011;63191;39.566;2.654;2023-05-08T05:30:10;6.90;;;1.90;;
74660;SDS011;63191;39.566;2.654;2023-05-08T05:32:36;6.50;;;1.70;;
74660;SDS011;63191;39.566;2.654;2023-05-08T05:35:03;6.10;;;1.70;;
74660;SDS011;63191;39.566;2.654;2023-05-08T05:37:36;6.40;;;1.50;;
74660;SDS011;63191;39.566;2.654;2023-05-08T05:40:02;6.10;;;1.90;;
74660;SDS011;63191;39.566;2.654;2023-05-08T05:44:56;6.60;;;1.90;;
74660;SDS011;63191;39.566;2.654;2023-05-08T05:47:23;7.40;;;2.10;;
74660;SDS011;63191;39.566;2.654;2023-05-08T05:49:49;5.20;;;1.80;;
74660;SDS011;63191;39.566;2.654;2023-05-08T05:52:15;7.30;;;1.80;;
74660;SDS011;63191;39.566;2.654;2023-05-08T05:54:40;5.60;;;2.00;;
74660;SDS011;63191;39.566;2.654;2023-05-08T05:59:34;7.00;;;1.80;;
74660;SDS011;63191;39.566;2.654;2023-05-08T06:01:59;6.20;;;2.00;;
74660;SDS011;63191;39.566;2.654;2023-05-08T06:04:25;7.50;;;2.30;;
74660;SDS011;63191;39.566;2.654;2023-05-08T06:06:57;6.30;;;2.30;;
74660;SDS011;63191;39.566;2.654;2023-05-08T06:09:22;7.50;;;2.30;;
74660;SDS011;63191;39.566;2.654;2023-05-08T06:12:00;7.20;;;2.50;;
74660;SDS011;63191;39.566;2.654;2023-05-08T06:14:32;5.90;;;2.80;;
74660;SDS011;63191;39.566;2.654;2023-05-08T06:17:07;5.30;;;2.80;;
74660;SDS011;63191;39.566;2.654;2023-05-08T06:19:36;9.50;;;3.00;;
74660;SDS011;63191;39.566;2.654;2023-05-08T06:22:03;7.60;;;3.30;;
74660;SDS011;63191;39.566;2.654;2023-05-08T06:24:29;6.40;;;3.10;;
74660;SDS011;63191;39.566;2.654;2023-05-08T06:26:55;5.80;;;3.60;;
74660;SDS011;63191;39.566;2.654;2023-05-08T06:29:21;7.50;;;3.80;;
74660;SDS011;63191;39.566;2.654;2023-05-08T06:31:47;6.50;;;4.00;;
74660;SDS011;63191;39.566;2.654;2023-05-08T06:39:31;8.20;;;4.50;;
74660;SDS011;63191;39.566;2.654;2023-05-08T06:41:57;7.90;;;3.70;;
74660;SDS011;63191;39.566;2.654;2023-05-08T06:44:22;8.70;;;3.90;;
74660;SDS011;63191;39.566;2.654;2023-05-08T06:46:48;7.80;;;3.60;;
74660;SDS011;63191;39.566;2.654;2023-05-08T06:49:14;7.70;;;3.60;;
74660;SDS011;63191;39.566;2.654;2023-05-08T06:51:40;9.90;;;2.80;;
74660;SDS011;63191;39.566;2.654;2023-05-08T06:54:08;6.80;;;2.90;;
74660;SDS011;63191;39.566;2.654;2023-05-08T06:56:35;7.20;;;2.70;;
74660;SDS011;63191;39.566;2.654;2023-05-08T06:59:04;6.10;;;2.60;;
74660;SDS011;63191;39.566;2.654;2023-05-08T07:01:29;6.50;;;2.50;;
74660;SDS011;63191;39.566;2.654;2023-05-08T07:03:55;7.90;;;2.70;;
74660;SDS011;63191;39.566;2.654;2023-05-08T07:06:21;6.60;;;2.00;;
74660;SDS011;63191;39.566;2.654;2023-05-08T07:08:47;6.20;;;2.10;;
74660;SDS011;63191;39.566;2.654;2023-05-08T07:11:13;6.40;;;2.20;;
74660;SDS011;63191;39.566;2.654;2023-05-08T07:13:43;6.00;;;1.80;;
74660;SDS011;63191;39.566;2.654;2023-05-08T07:16:12;6.80;;;2.20;;
74660;SDS011;63191;39.566;2.654;2023-05-08T07:18:39;6.00;;;2.10;;
74660;SDS011;63191;39.566;2.654;2023-05-08T07:21:05;7.30;;;2.40;;
74660;SDS011;63191;39.566;2.654;2023-05-08T07:23:30;7.90;;;2.10;;
74660;SDS011;63191;39.566;2.654;2023-05-08T07:25:56;8.60;;;2.60;;
74660;SDS011;63191;39.566;2.654;2023-05-08T07:28:22;5.80;;;2.10;;
74660;SDS011;63191;39.566;2.654;2023-05-08T07:30:48;6.30;;;1.80;;
74660;SDS011;63191;39.566;2.654;2023-05-08T07:33:14;6.70;;;2.50;;
74660;SDS011;63191;39.566;2.654;2023-05-08T07:35:40;5.60;;;2.00;;
74660;SDS011;63191;39.566;2.654;2023-05-08T07:38:06;6.30;;;2.10;;
74660;SDS011;63191;39.566;2.654;2023-05-08T07:40:33;4.90;;;1.60;;
74660;SDS011;63191;39.566;2.654;2023-05-08T07:42:58;6.50;;;2.20;;
74660;SDS011;63191;39.566;2.654;2023-05-08T07:45:25;6.10;;;2.00;;
74660;SDS011;63191;39.566;2.654;2023-05-08T07:47:52;6.90;;;1.80;;
74660;SDS011;63191;39.566;2.654;2023-05-08T07:50:19;8.40;;;2.10;;
74660;SDS011;63191;39.566;2.654;2023-05-08T07:52:46;6.00;;;1.40;;
74660;SDS011;63191;39.566;2.654;2023-05-08T07:55:12;8.30;;;2.00;;
74660;SDS011;63191;39.566;2.654;2023-05-08T07:57:39;6.40;;;2.10;;
74660;SDS011;63191;39.566;2.654;2023-05-08T08:00:07;6.50;;;1.90;;
74660;SDS011;63191;39.566;2.654;2023-05-08T08:02:34;5.20;;;2.00;;
74660;SDS011;63191;39.566;2.654;2023-05-08T08:05:00;6.80;;;2.00;;
74660;SDS011;63191;39.566;2.654;2023-05-08T08:07:26;5.80;;;1.90;;
74660;SDS011;63191;39.566;2.654;2023-05-08T08:09:52;6.60;;;1.80;;
74660;SDS011;63191;39.566;2.654;2023-05-08T08:12:18;8.40;;;2.20;;
74660;SDS011;63191;39.566;2.654;2023-05-08T08:14:45;7.30;;;1.90;;
74660;SDS011;63191;39.566;2.654;2023-05-08T08:17:10;6.60;;;2.20;;
74660;SDS011;63191;39.566;2.654;2023-05-08T08:19:36;6.00;;;1.80;;
74660;SDS011;63191;39.566;2.654;2023-05-08T08:22:02;7.00;;;1.70;;
74660;SDS011;63191;39.566;2.654;2023-05-08T08:24:28;7.70;;;2.40;;
74660;SDS011;63191;39.566;2.654;2023-05-08T08:26:54;5.20;;;2.00;;
74660;SDS011;63191;39.566;2.654;2023-05-08T08:29:20;6.20;;;1.80;;
74660;SDS011;63191;39.566;2.654;2023-05-08T08:31:46;5.00;;;1.60;;
74660;SDS011;63191;39.566;2.654;2023-05-08T08:34:12;5.30;;;2.00;;
74660;SDS011;63191;39.566;2.654;2023-05-08T08:36:38;5.80;;;1.60;;
74660;SDS011;63191;39.566;2.654;2023-05-08T08:39:04;8.90;;;1.80;;
74660;SDS011;63191;39.566;2.654;2023-05-08T08:41:30;3.90;;;1.40;;
74660;SDS011;63191;39.566;2.654;2023-05-08T08:43:55;6.80;;;2.20;;
74660;SDS011;63191;39.566;2.654;2023-05-08T08:46:25;5.90;;;1.90;;
74660;SDS011;63191;39.566;2.654;2023-05-08T08:48:54;5.00;;;1.70;;
74660;SDS011;63191;39.566;2.654;2023-05-08T08:51:27;4.20;;;1.60;;
74660;SDS011;63191;39.566;2.654;2023-05-08T08:54:10;6.70;;;1.70;;
74660;SDS011;63191;39.566;2.654;2023-05-08T08:56:39;4.80;;;1.50;;
74660;SDS011;63191;39.566;2.654;2023-05-08T08:59:10;7.70;;;3.20;;
74660;SDS011;63191;39.566;2.654;2023-05-08T09:01:38;7.40;;;2.00;;
74660;SDS011;63191;39.566;2.654;2023-05-08T09:04:05;4.80;;;1.70;;
74660;SDS011;63191;39.566;2.654;2023-05-08T09:06:35;5.50;;;1.40;;
74660;SDS011;63191;39.566;2.654;2023-05-08T09:09:02;6.40;;;1.70;;
74660;SDS011;63191;39.566;2.654;2023-05-08T09:11:28;5.00;;;1.50;;
74660;SDS011;63191;39.566;2.654;2023-05-08T09:13:54;5.20;;;1.70;;
74660;SDS011;63191;39.566;2.654;2023-05-08T09:16:20;4.80;;;1.50;;
74660;SDS011;63191;39.566;2.654;2023-05-08T09:18:47;5.30;;;1.60;;
74660;SDS011;63191;39.566;2.654;2023-05-08T09:21:13;6.70;;;2.10;;
74660;SDS011;63191;39.566;2.654;2023-05-08T09:24:01;7.60;;;1.90;;
74660;SDS011;63191;39.566;2.654;2023-05-08T09:26:38;9.10;;;2.80;;
74660;SDS011;63191;39.566;2.654;2023-05-08T09:29:15;5.60;;;1.70;;
74660;SDS011;63191;39.566;2.654;2023-05-08T09:31:47;6.70;;;2.10;;
74660;SDS011;63191;39.566;2.654;2023-05-08T09:34:28;8.00;;;2.10;;
74660;SDS011;63191;39.566;2.654;2023-05-08T09:37:09;5.80;;;1.70;;
74660;SDS011;63191;39.566;2.654;2023-05-08T09:39:36;6.10;;;1.40;;
74660;SDS011;63191;39.566;2.654;2023-05-08T09:42:05;6.50;;;1.60;;
74660;SDS011;63191;39.566;2.654;2023-05-08T09:44:44;5.20;;;1.60;;
74660;SDS011;63191;39.566;2.654;2023-05-08T09:47:12;5.20;;;1.60;;
74660;SDS011;63191;39.566;2.654;2023-05-08T09:50:15;4.10;;;1.60;;
74660;SDS011;63191;39.566;2.654;2023-05-08T09:52:46;7.50;;;1.70;;
74660;SDS011;63191;39.566;2.654;2023-05-08T09:55:13;6.60;;;1.50;;
74660;SDS011;63191;39.566;2.654;2023-05-08T09:57:52;4.40;;;1.50;;
74660;SDS011;63191;39.566;2.654;2023-05-08T10:00:26;5.40;;;2.00;;
74660;SDS011;63191;39.566;2.654;2023-05-08T10:03:02;5.40;;;1.50;;
74660;SDS011;63191;39.566;2.654;2023-05-08T10:05:30;4.90;;;1.50;;
74660;SDS011;63191;39.566;2.654;2023-05-08T10:07:58;5.00;;;1.60;;
74660;SDS011;63191;39.566;2.654;2023-05-08T10:10:41;6.10;;;1.40;;
74660;SDS011;63191;39.566;2.654;2023-05-08T10:13:08;5.10;;;1.20;;
74660;SDS011;63191;39.566;2.654;2023-05-08T10:15:35;5.30;;;1.40;;
74660;SDS011;63191;39.566;2.654;2023-05-08T10:18:04;6.00;;;1.60;;
74660;SDS011;63191;39.566;2.654;2023-05-08T10:20:32;6.10;;;1.10;;
74660;SDS011;63191;39.566;2.654;2023-05-08T10:23:02;6.70;;;1.10;;
74660;SDS011;63191;39.566;2.654;2023-05-08T10:25:33;6.50;;;1.30;;
74660;SDS011;63191;39.566;2.654;2023-05-08T10:28:15;7.60;;;1.40;;
74660;SDS011;63191;39.566;2.654;2023-05-08T10:30:46;6.10;;;1.50;;
74660;SDS011;63191;39.566;2.654;2023-05-08T10:33:14;4.40;;;1.30;;
74660;SDS011;63191;39.566;2.654;2023-05-08T10:35:44;7.70;;;1.50;;
74660;SDS011;63191;39.566;2.654;2023-05-08T10:38:11;5.80;;;1.30;;
74660;SDS011;63191;39.566;2.654;2023-05-08T10:40:37;4.90;;;1.10;;
74660;SDS011;63191;39.566;2.654;2023-05-08T10:43:13;4.70;;;1.40;;
74660;SDS011;63191;39.566;2.654;2023-05-08T10:45:41;5.60;;;1.10;;
74660;SDS011;63191;39.566;2.654;2023-05-08T10:48:18;6.40;;;1.50;;
74660;SDS011;63191;39.566;2.654;2023-05-08T10:51:09;6.80;;;1.50;;
74660;SDS011;63191;39.566;2.654;2023-05-08T10:53:47;5.40;;;1.50;;
74660;SDS011;63191;39.566;2.654;2023-05-08T10:56:14;5.70;;;1.60;;
74660;SDS011;63191;39.566;2.654;2023-05-08T10:58:40;5.90;;;1.40;;
74660;SDS011;63191;39.566;2.654;2023-05-08T11:03:37;7.30;;;1.40;;
74660;SDS011;63191;39.566;2.654;2023-05-08T11:06:07;4.70;;;1.10;;
74660;SDS011;63191;39.566;2.654;2023-05-08T11:08:43;5.60;;;1.80;;
74660;SDS011;63191;39.566;2.654;2023-05-08T11:11:24;5.00;;;1.40;;
74660;SDS011;63191;39.566;2.654;2023-05-08T11:13:58;4.40;;;1.20;;
74660;SDS011;63191;39.566;2.654;2023-05-08T11:17:02;6.70;;;1.60;;
74660;SDS011;63191;39.566;2.654;2023-05-08T11:19:32;4.40;;;1.40;;
74660;SDS011;63191;39.566;2.654;2023-05-08T11:27:37;5.10;;;1.70;;
74660;SDS011;63191;39.566;2.654;2023-05-08T11:30:24;4.80;;;1.40;;
74660;SDS011;63191;39.566;2.654;2023-05-08T11:32:57;4.70;;;1.30;;
74660;SDS011;63191;39.566;2.654;2023-05-08T11:38:25;7.20;;;1.50;;
74660;SDS011;63191;39.566;2.654;2023-05-08T11:46:04;5.20;;;1.30;;
74660;SDS011;63191;39.566;2.654;2023-05-08T11:48:33;6.10;;;1.50;;
74660;SDS011;63191;39.566;2.654;2023-05-08T11:51:01;5.10;;;1.10;;
74660;SDS011;63191;39.566;2.654;2023-05-08T11:53:31;6.90;;;1.20;;
74660;SDS011;63191;39.566;2.654;2023-05-08T11:55:58;6.70;;;1.40;;
74660;SDS011;63191;39.566;2.654;2023-05-08T11:58:25;6.20;;;1.10;;
74660;SDS011;63191;39.566;2.654;2023-05-08T12:00:54;7.90;;;1.20;;
74660;SDS011;63191;39.566;2.654;2023-05-08T12:03:22;4.60;;;1.10;;
74660;SDS011;63191;39.566;2.654;2023-05-08T12:05:55;5.10;;;1.20;;
74660;SDS011;63191;39.566;2.654;2023-05-08T12:08:22;4.70;;;1.00;;
74660;SDS011;63191;39.566;2.654;2023-05-08T12:10:49;4.20;;;1.10;;
74660;SDS011;63191;39.566;2.654;2023-05-08T12:13:18;4.80;;;1.20;;
74660;SDS011;63191;39.566;2.654;2023-05-08T12:15:47;3.70;;;1.00;;
74660;SDS011;63191;39.566;2.654;2023-05-08T12:18:17;5.30;;;1.30;;
74660;SDS011;63191;39.566;2.654;2023-05-08T12:20:44;5.30;;;1.20;;
74660;SDS011;63191;39.566;2.654;2023-05-08T12:23:10;4.00;;;1.00;;
74660;SDS011;63191;39.566;2.654;2023-05-08T12:25:38;4.60;;;1.20;;
74660;SDS011;63191;39.566;2.654;2023-05-08T12:28:08;4.00;;;0.90;;
74660;SDS011;63191;39.566;2.654;2023-05-08T12:30:35;3.90;;;1.10;;
74660;SDS011;63191;39.566;2.654;2023-05-08T12:33:02;4.30;;;0.90;;
74660;SDS011;63191;39.566;2.654;2023-05-08T12:35:36;4.80;;;1.20;;
74660;SDS011;63191;39.566;2.654;2023-05-08T12:38:07;5.90;;;1.50;;
74660;SDS011;63191;39.566;2.654;2023-05-08T12:40:44;4.80;;;1.20;;
74660;SDS011;63191;39.566;2.654;2023-05-08T12:43:13;4.40;;;1.30;;
74660;SDS011;63191;39.566;2.654;2023-05-08T12:45:40;4.60;;;1.20;;
74660;SDS011;63191;39.566;2.654;2023-05-08T12:48:11;6.20;;;1.20;;
74660;SDS011;63191;39.566;2.654;2023-05-08T12:50:42;5.50;;;1.20;;
74660;SDS011;63191;39.566;2.654;2023-05-08T12:53:18;4.90;;;1.40;;
74660;SDS011;63191;39.566;2.654;2023-05-08T12:55:55;6.20;;;2.40;;
74660;SDS011;63191;39.566;2.654;2023-05-08T12:58:28;5.10;;;1.30;;
74660;SDS011;63191;39.566;2.654;2023-05-08T13:01:11;3.80;;;1.40;;
74660;SDS011;63191;39.566;2.654;2023-05-08T13:03:38;6.00;;;1.90;;
74660;SDS011;63191;39.566;2.654;2023-05-08T13:06:04;4.90;;;1.40;;
74660;SDS011;63191;39.566;2.654;2023-05-08T13:08:38;4.70;;;1.70;;
74660;SDS011;63191;39.566;2.654;2023-05-08T13:11:35;3.90;;;1.30;;
74660;SDS011;63191;39.566;2.654;2023-05-08T13:14:02;2.50;;;0.70;;
74660;SDS011;63191;39.566;2.654;2023-05-08T13:16:28;4.80;;;1.10;;
74660;SDS011;63191;39.566;2.654;2023-05-08T13:18:54;5.20;;;1.30;;
74660;SDS011;63191;39.566;2.654;2023-05-08T13:21:19;4.20;;;1.10;;
74660;SDS011;63191;39.566;2.654;2023-05-08T13:23:45;6.10;;;1.20;;
74660;SDS011;63191;39.566;2.654;2023-05-08T13:26:11;5.00;;;1.20;;
74660;SDS011;63191;39.566;2.654;2023-05-08T13:28:38;5.70;;;1.20;;
74660;SDS011;63191;39.566;2.654;2023-05-08T13:31:04;4.80;;;1.20;;
74660;SDS011;63191;39.566;2.654;2023-05-08T13:33:30;5.50;;;1.30;;
74660;SDS011;63191;39.566;2.654;2023-05-08T13:35:57;5.20;;;1.60;;
74660;SDS011;63191;39.566;2.654;2023-05-08T13:38:23;5.50;;;1.40;;
74660;SDS011;63191;39.566;2.654;2023-05-08T13:40:48;5.10;;;1.40;;
74660;SDS011;63191;39.566;2.654;2023-05-08T13:43:14;4.20;;;1.20;;
74660;SDS011;63191;39.566;2.654;2023-05-08T13:45:40;5.60;;;1.60;;
74660;SDS011;63191;39.566;2.654;2023-05-08T13:48:06;6.50;;;1.40;;
74660;SDS011;63191;39.566;2.654;2023-05-08T13:50:32;4.70;;;1.80;;
74660;SDS011;63191;39.566;2.654;2023-05-08T13:52:58;4.80;;;1.50;;
74660;SDS011;63191;39.566;2.654;2023-05-08T13:55:23;6.40;;;2.20;;
74660;SDS011;63191;39.566;2.654;2023-05-08T13:57:49;5.80;;;2.00;;
74660;SDS011;63191;39.566;2.654;2023-05-08T14:00:16;6.40;;;2.10;;
74660;SDS011;63191;39.566;2.654;2023-05-08T14:02:42;4.00;;;1.50;;
74660;SDS011;63191;39.566;2.654;2023-05-08T14:05:09;5.30;;;1.90;;
74660;SDS011;63191;39.566;2.654;2023-05-08T14:07:37;4.90;;;1.60;;
74660;SDS011;63191;39.566;2.654;2023-05-08T14:10:03;4.40;;;1.40;;
74660;SDS011;63191;39.566;2.654;2023-05-08T14:12:29;5.70;;;1.60;;
74660;SDS011;63191;39.566;2.654;2023-05-08T14:14:58;3.90;;;1.30;;
74660;SDS011;63191;39.566;2.654;2023-05-08T14:17:24;6.80;;;2.40;;
74660;SDS011;63191;39.566;2.654;2023-05-08T14:19:50;6.00;;;1.80;;
74660;SDS011;63191;39.566;2.654;2023-05-08T14:22:16;6.20;;;1.70;;
74660;SDS011;63191;39.566;2.654;2023-05-08T14:24:42;5.80;;;1.50;;
74660;SDS011;63191;39.566;2.654;2023-05-08T14:27:08;5.70;;;1.60;;
74660;SDS011;63191;39.566;2.654;2023-05-08T14:29:34;5.30;;;1.60;;
74660;SDS011;63191;39.566;2.654;2023-05-08T14:32:00;5.00;;;1.40;;
74660;SDS011;63191;39.566;2.654;2023-05-08T14:34:26;6.50;;;1.40;;
74660;SDS011;63191;39.566;2.654;2023-05-08T14:36:58;4.70;;;1.00;;
74660;SDS011;63191;39.566;2.654;2023-05-08T14:39:24;4.90;;;1.00;;
74660;SDS011;63191;39.566;2.654;2023-05-08T14:41:49;4.40;;;0.90;;
74660;SDS011;63191;39.566;2.654;2023-05-08T14:44:15;5.70;;;1.00;;
74660;SDS011;63191;39.566;2.654;2023-05-08T14:46:41;4.80;;;1.10;;
74660;SDS011;63191;39.566;2.654;2023-05-08T14:49:06;7.20;;;1.10;;
74660;SDS011;63191;39.566;2.654;2023-05-08T14:51:32;4.70;;;1.00;;
74660;SDS011;63191;39.566;2.654;2023-05-08T14:53:58;5.30;;;1.10;;
74660;SDS011;63191;39.566;2.654;2023-05-08T14:56:24;4.80;;;1.40;;
74660;SDS011;63191;39.566;2.654;2023-05-08T14:58:50;4.20;;;1.10;;
74660;SDS011;63191;39.566;2.654;2023-05-08T15:01:17;5.20;;;0.90;;
74660;SDS011;63191;39.566;2.654;2023-05-08T15:03:43;5.50;;;1.00;;
74660;SDS011;63191;39.566;2.654;2023-05-08T15:06:11;6.50;;;1.20;;
74660;SDS011;63191;39.566;2.654;2023-05-08T15:08:37;5.70;;;1.00;;
74660;SDS011;63191;39.566;2.654;2023-05-08T15:11:05;5.00;;;1.00;;
74660;SDS011;63191;39.566;2.654;2023-05-08T15:13:31;4.10;;;0.90;;
74660;SDS011;63191;39.566;2.654;2023-05-08T15:15:59;3.60;;;0.80;;
74660;SDS011;63191;39.566;2.654;2023-05-08T15:18:25;4.20;;;1.10;;
74660;SDS011;63191;39.566;2.654;2023-05-08T15:20:55;4.10;;;1.10;;
74660;SDS011;63191;39.566;2.654;2023-05-08T15:23:22;5.80;;;1.30;;
74660;SDS011;63191;39.566;2.654;2023-05-08T15:25:48;6.30;;;1.00;;
74660;SDS011;63191;39.566;2.654;2023-05-08T15:28:14;4.10;;;1.10;;
74660;SDS011;63191;39.566;2.654;2023-05-08T15:30:40;4.80;;;1.10;;
74660;SDS011;63191;39.566;2.654;2023-05-08T15:33:06;6.40;;;1.10;;
74660;SDS011;63191;39.566;2.654;2023-05-08T15:35:32;4.70;;;0.90;;
74660;SDS011;63191;39.566;2.654;2023-05-08T15:37:57;3.80;;;1.10;;
74660;SDS011;63191;39.566;2.654;2023-05-08T15:40:31;4.50;;;1.10;;
74660;SDS011;63191;39.566;2.654;2023-05-08T15:42:57;3.80;;;0.90;;
74660;SDS011;63191;39.566;2.654;2023-05-08T15:45:23;5.70;;;1.10;;
74660;SDS011;63191;39.566;2.654;2023-05-08T15:47:49;5.90;;;1.70;;
74660;SDS011;63191;39.566;2.654;2023-05-08T15:50:14;5.90;;;1.10;;
74660;SDS011;63191;39.566;2.654;2023-05-08T15:52:41;5.80;;;1.40;;
74660;SDS011;63191;39.566;2.654;2023-05-08T15:55:07;4.00;;;1.20;;
74660;SDS011;63191;39.566;2.654;2023-05-08T15:57:33;4.50;;;1.10;;
74660;SDS011;63191;39.566;2.654;2023-05-08T15:59:59;3.50;;;0.80;;
74660;SDS011;63191;39.566;2.654;2023-05-08T16:02:25;6.00;;;1.30;;
74660;SDS011;63191;39.566;2.654;2023-05-08T16:04:51;4.60;;;1.20;;
74660;SDS011;63191;39.566;2.654;2023-05-08T16:07:26;8.30;;;1.10;;
74660;SDS011;63191;39.566;2.654;2023-05-08T16:09:52;6.60;;;1.20;;
74660;SDS011;63191;39.566;2.654;2023-05-08T16:12:18;7.40;;;1.20;;
74660;SDS011;63191;39.566;2.654;2023-05-08T16:14:44;5.60;;;1.00;;
74660;SDS011;63191;39.566;2.654;2023-05-08T16:17:09;7.20;;;1.20;;